createdAt,value
2023-02-20T04:45:05.015Z,0.37
2023-02-20T04:48:08.908Z,0.60
2023-02-20T04:51:12.175Z,0.35
2023-02-20T04:54:16.470Z,0.60
2023-02-20T04:57:19.525Z,0.88
2023-02-20T05:00:24.157Z,0.50
2023-02-20T05:03:26.855Z,0.77
2023-02-20T05:06:29.730Z,0.85
2023-02-20T05:09:32.341Z,0.68
2023-02-20T05:12:35.653Z,0.82
2023-02-20T05:15:38.444Z,0.68
2023-02-20T05:18:41.399Z,0.40
2023-02-20T05:22:04.230Z,0.93
2023-02-20T05:25:08.326Z,1.00
2023-02-20T05:28:10.996Z,0.10
2023-02-20T05:31:17.348Z,0.35
2023-02-20T05:34:25.713Z,0.43
2023-02-20T05:37:28.940Z,1.00
2023-02-20T05:40:32.491Z,0.60
2023-02-20T05:43:35.514Z,0.70
2023-02-20T05:46:42.506Z,0.90
2023-02-20T05:49:48.021Z,0.98
2023-02-20T05:52:50.737Z,0.40
2023-02-20T05:55:53.697Z,0.70
2023-02-20T05:58:56.589Z,0.95
2023-02-20T06:02:00.596Z,1.15
2023-02-20T06:05:05.687Z,0.70
2023-02-20T06:08:08.513Z,0.47
2023-02-20T06:11:13.241Z,0.60
2023-02-20T06:14:18.863Z,0.70
2023-02-20T06:17:21.855Z,1.37
2023-02-20T06:20:24.540Z,0.37
2023-02-20T06:23:27.525Z,0.60
2023-02-20T06:26:30.093Z,1.40
2023-02-20T06:29:33.014Z,0.60
2023-02-20T06:32:35.589Z,0.93
2023-02-20T06:35:38.891Z,1.42
2023-02-20T06:38:41.513Z,0.62
2023-02-20T06:41:45.298Z,0.22
2023-02-20T06:44:48.052Z,1.20
2023-02-20T06:47:51.701Z,0.40
2023-02-20T06:50:57.291Z,2.45
2023-02-20T06:54:01.858Z,1.50
2023-02-20T06:57:04.838Z,1.02
2023-02-20T07:00:08.656Z,0.50
2023-02-20T07:03:17.544Z,0.90
2023-02-20T07:09:25.241Z,0.40
2023-02-20T07:12:36.074Z,0.55
2023-02-20T07:15:39.964Z,0.40
2023-02-20T07:18:43.990Z,0.50
2023-02-20T07:21:47.704Z,0.75
2023-02-20T07:24:52.537Z,0.47
2023-02-20T07:27:55.308Z,0.20
2023-02-20T07:34:00.980Z,0.50
2023-02-20T07:37:09.760Z,0.40
2023-02-20T07:40:13.286Z,0.30
2023-02-20T07:43:16.336Z,0.77
2023-02-20T07:46:20.456Z,0.45
2023-02-20T07:49:23.720Z,0.40
2023-02-20T07:52:26.989Z,0.30
2023-02-20T07:55:30.000Z,0.60
2023-02-20T07:58:32.764Z,0.45
2023-02-20T08:04:38.762Z,0.50
2023-02-20T08:07:46.660Z,0.80
2023-02-20T08:10:57.047Z,0.47
2023-02-20T08:14:04.363Z,0.62
2023-02-20T08:17:07.290Z,0.55
2023-02-20T08:20:10.288Z,0.80
2023-02-20T08:23:18.010Z,0.70
2023-02-20T08:26:21.114Z,0.55
2023-02-20T08:29:24.309Z,1.00
2023-02-20T08:32:27.145Z,0.60
2023-02-20T08:35:30.214Z,0.30
2023-02-20T08:38:38.375Z,0.80
2023-02-20T08:41:48.350Z,0.62
2023-02-20T08:44:51.038Z,0.65
2023-02-20T08:48:01.674Z,0.77
2023-02-20T08:51:06.890Z,0.98
2023-02-20T08:54:09.926Z,0.45
2023-02-20T08:57:13.533Z,0.93
2023-02-20T09:00:19.037Z,1.27
2023-02-20T09:03:22.250Z,1.20
2023-02-20T09:06:26.186Z,1.58
2023-02-20T09:09:31.098Z,0.98
2023-02-20T09:12:34.136Z,1.15
2023-02-20T09:15:39.933Z,1.25
2023-02-20T09:18:44.662Z,1.33
2023-02-20T09:21:48.160Z,0.70
2023-02-20T09:24:51.919Z,1.00
2023-02-20T09:31:55.883Z,0.80
2023-02-20T09:34:59.053Z,1.00
2023-02-20T09:38:02.103Z,1.08
2023-02-20T09:41:06.570Z,0.70
2023-02-20T09:44:27.141Z,0.93
2023-02-20T09:47:48.595Z,0.90
2023-02-20T09:51:02.373Z,0.62
2023-02-20T09:54:12.838Z,0.70
2023-02-20T09:57:27.003Z,1.00
2023-02-20T10:00:37.699Z,0.68
2023-02-20T10:04:18.664Z,0.70
2023-02-20T10:07:37.809Z,1.00
2023-02-20T10:10:42.172Z,1.00
2023-02-20T10:13:44.907Z,0.93
2023-02-20T10:17:14.208Z,1.20
2023-02-20T10:20:29.182Z,0.70
2023-02-20T10:24:05.557Z,1.08
2023-02-20T10:27:33.879Z,1.10
2023-02-20T10:30:43.113Z,1.10
2023-02-20T10:33:52.929Z,1.12
2023-02-20T10:37:04.276Z,1.00
2023-02-20T10:40:30.565Z,0.68
2023-02-20T10:43:44.521Z,0.60
2023-02-20T10:47:06.334Z,1.10
2023-02-20T10:50:16.630Z,1.12
2023-02-20T10:53:38.749Z,0.90
2023-02-20T10:56:49.994Z,0.70
2023-02-20T11:00:33.228Z,1.05
2023-02-20T11:03:45.459Z,1.00
2023-02-20T11:07:00.845Z,1.23
2023-02-20T11:10:06.456Z,1.05
2023-02-20T11:13:23.033Z,1.40
2023-02-20T11:16:36.072Z,0.98
2023-02-20T11:19:40.930Z,0.80
2023-02-20T11:22:47.796Z,0.90
2023-02-20T11:25:50.657Z,0.85
2023-02-20T11:29:06.889Z,0.70
2023-02-20T11:32:23.379Z,1.02
2023-02-20T11:35:30.244Z,1.60
2023-02-20T11:38:35.703Z,1.62
2023-02-20T11:41:39.953Z,1.02
2023-02-20T11:44:43.765Z,1.05
2023-02-20T11:48:05.516Z,1.10
2023-02-20T11:51:31.180Z,1.30
2023-02-20T11:54:34.152Z,1.05
2023-02-20T11:57:45.449Z,0.70
2023-02-20T12:00:50.689Z,1.45
2023-02-20T12:03:58.485Z,1.05
2023-02-20T12:07:26.689Z,0.98
2023-02-20T12:31:21.941Z,1.05
2023-02-20T12:34:48.117Z,1.02
2023-02-20T12:37:56.870Z,1.65
2023-02-20T12:41:21.145Z,1.00
2023-02-20T12:45:04.195Z,1.27
2023-02-20T12:48:35.112Z,1.12
2023-02-20T12:52:15.464Z,0.73
2023-02-20T12:55:50.421Z,1.42
2023-02-20T12:59:05.529Z,0.98
2023-02-20T13:02:45.218Z,1.00
2023-02-20T13:05:50.243Z,1.12
2023-02-20T13:09:06.834Z,1.10
2023-02-20T13:12:15.288Z,1.10
2023-02-20T13:15:42.804Z,0.98
2023-02-20T13:19:06.799Z,1.17
2023-02-20T13:22:10.597Z,1.40
2023-02-20T13:25:31.956Z,0.98
2023-02-20T13:28:46.846Z,1.67
2023-02-20T13:31:53.078Z,1.08
2023-02-20T13:35:54.538Z,0.80
2023-02-20T13:39:18.782Z,1.30
2023-02-20T13:42:30.691Z,0.93
2023-02-20T13:45:41.855Z,0.73
2023-02-20T13:48:52.217Z,1.12
2023-02-20T13:51:55.124Z,0.88
2023-02-20T13:55:02.384Z,1.12
2023-02-20T13:58:15.034Z,0.60
2023-02-20T14:01:18.090Z,0.80
2023-02-20T14:04:22.442Z,0.70
2023-02-20T14:07:29.150Z,1.35
2023-02-20T14:10:32.698Z,0.60
2023-02-20T14:13:41.270Z,1.00
2023-02-20T14:16:45.130Z,0.93
2023-02-20T14:20:08.509Z,0.70
2023-02-20T14:23:30.400Z,1.48
2023-02-20T14:26:34.583Z,0.80
2023-02-20T14:29:38.314Z,0.52
2023-02-20T14:32:46.705Z,0.60
2023-02-20T14:36:27.595Z,0.80
2023-02-20T14:39:44.764Z,0.88
2023-02-20T14:42:48.084Z,0.62
2023-02-20T14:46:03.400Z,1.00
2023-02-20T14:49:13.254Z,0.77
2023-02-20T14:52:20.384Z,0.73
2023-02-20T14:55:25.801Z,0.70
2023-02-20T14:58:35.566Z,0.70
2023-02-20T15:01:41.122Z,0.93
2023-02-20T15:05:03.177Z,1.20
2023-02-20T15:08:18.113Z,0.90
2023-02-20T15:11:20.790Z,0.62
2023-02-20T15:17:31.358Z,0.80
2023-02-20T15:20:35.029Z,0.60
2023-02-20T15:23:43.282Z,0.60
2023-02-20T15:26:47.234Z,0.40
2023-02-20T15:30:08.636Z,0.60
2023-02-20T15:33:11.967Z,0.93
2023-02-20T15:36:17.973Z,0.40
2023-02-20T15:39:21.751Z,0.57
2023-02-20T15:42:25.029Z,0.60
2023-02-20T15:45:30.443Z,1.40
2023-02-20T15:48:33.345Z,0.90
2023-02-20T15:51:42.390Z,1.58
2023-02-20T15:54:55.794Z,1.62
2023-02-20T15:57:59.411Z,1.70
2023-02-20T16:01:02.554Z,1.60
2023-02-20T16:04:07.591Z,2.10
2023-02-20T16:07:10.339Z,2.12
2023-02-20T16:13:45.464Z,2.42
2023-02-20T16:16:53.239Z,2.53
2023-02-20T16:19:56.211Z,2.65
2023-02-20T16:26:01.877Z,2.40
2023-02-20T16:29:24.784Z,2.45
2023-02-20T16:32:30.319Z,2.50
